Terminal Aerodrome Forecast
Issued by NWS Mt. Holly, NJ

Home | Current Version | Previous Version | Text Only | Print | Product List | Glossary On
Versions: 1 2 3 4 5 6 7 8 9 10 11 12 13 14 15 16 17 18 19 20 21 22 23 24 25 26 27
854
FTUS41 KPHI 301358 AAC
TAFTTN
TAF AMD
KTTN 301358Z 3014/0112 09012KT P6SM BKN035
      TEMPO 3014/3018 BKN025
     FM301800 10010KT P6SM BKN025
     FM302100 10010G20KT P6SM OVC015
     FM010000 11012G20KT 4SM BR OVC007
     FM010300 12012KT 1SM BR OVC004=

USA.gov is the U.S. government's official web portal to all federal, state and local government web resources and services.